La Plata, NM (87418)

3:10 AM MDT on September 19, 2014 (GMT -0600)
8 miles North of Farmington, NM | Change Station
CLOSE
Current Station
Personal Weather Station
Location: La Plata, NM
Elevation: 5663 ft
Nearby Weather Stations

Elev 5663 ft 36.87 °N, 108.20 °W | Updated 1 minute ago

Clear
Clear
55.3 °F
Feels Like 55.3 °F
N
3.0
Wind Variable Wind from NNE
Gusts 8.0 mph

Today
High -- | Low -- °F
--% Chance of Precip.
Yesterday
High -- | Low -- °F
Precip. -- in
6:58 AM 7:14 PM
Waning Crescent, 20% visible
Pressure 29.85 in
Visibility 10.0 miles
Clouds Clear
Dew Point 39 °F
Humidity 54%
Rainfall 0.00 in
Snow Depth Not available.
UV 0 out of 12
Pollen 6.30 out of 12
Air Quality Not available.
Flu Activity Not available.
METAR KFMN 190853Z AUTO 08007KT 10SM CLR 17/06 A3003 RMK AO2 SLP106 T01720056 51007

More Conditions Fewer Conditions

Pressure 29.85 in
Visibility 10.0 miles
Clouds Clear
Dew Point 39 °F
Humidity 54%
Rainfall 0.00 in
Snow Depth Not available.
UV 0 out of 12
Pollen 6.30 out of 12
Air Quality Not available.
Flu Activity Not available.
METAR KFMN 190853Z AUTO 08007KT 10SM CLR 17/06 A3003 RMK AO2 SLP106 T01720056 51007

More Conditions Fewer Conditions

10-Day Weather Forecast

Almanac

Astronomy

Sep. 19, 2014 Rise Set
Actual Time 6:58 AM MDT 7:14 PM MDT
Civil Twilight 6:32 AM MDT 7:39 PM MDT
Nautical Twilight 6:01 AM MDT 8:10 PM MDT
Astronomical Twilight 5:30 AM MDT 8:41 PM MDT
Moon 2:50 AM MDT 4:40 PM MDT
Length of Visible Light 13h 07m
Length of Day
12h 15m
Tomorrow will be 2m 21s shorter.
Waning Crescent, 20% of the Moon is Illuminated
Today
Waning Crescent
Sep 24
New
Oct 1
First Quarter
Oct 8
Full
Oct 15
Last Quarter

Today's Extremes

State Highs State Lows

Community

WunderPhotos

Upload Photos

1,754,583 photos uploaded!

Nearby

Snow Depth

Station Depth Elevation
McKnight Cabin 0 in 9240 ft
Signal Peak 1 in 8360 ft
Rice Park 0 in 8460 ft
Senorita Divide #2 0 in 8600 ft
Sierra Blanca 1 in 10280 ft

Earthquake Activity

City Distance Mag. Time & Date
No recent earthquake activity has been reported nearby.
Minimum magnitude displayed is 2.5.

Coastal Water Temperatures

Place Temperature
No Stations Reporting

Nearby Weather Stations